sensor_id;sensor_type;location;lat;lon;timestamp;P1;durP1;ratioP1;P2;durP2;ratioP2
36355;SDS011;22384;54.302;18.596;2022-07-23T00:01:26;9.05;;;6.15;;
36355;SDS011;22384;54.302;18.596;2022-07-23T00:03:54;9.60;;;5.15;;
36355;SDS011;22384;54.302;18.596;2022-07-23T00:06:20;9.88;;;5.75;;
36355;SDS011;22384;54.302;18.596;2022-07-23T00:08:47;7.07;;;5.68;;
36355;SDS011;22384;54.302;18.596;2022-07-23T00:11:13;10.07;;;5.70;;
36355;SDS011;22384;54.302;18.596;2022-07-23T00:13:39;7.55;;;4.90;;
36355;SDS011;22384;54.302;18.596;2022-07-23T00:16:06;9.45;;;5.22;;
36355;SDS011;22384;54.302;18.596;2022-07-23T00:18:32;7.00;;;5.28;;
36355;SDS011;22384;54.302;18.596;2022-07-23T00:20:58;9.02;;;6.00;;
36355;SDS011;22384;54.302;18.596;2022-07-23T00:23:25;7.35;;;5.72;;
36355;SDS011;22384;54.302;18.596;2022-07-23T00:25:52;10.95;;;6.07;;
36355;SDS011;22384;54.302;18.596;2022-07-23T00:28:19;10.20;;;6.30;;
36355;SDS011;22384;54.302;18.596;2022-07-23T00:30:45;7.05;;;5.45;;
36355;SDS011;22384;54.302;18.596;2022-07-23T00:33:11;9.43;;;6.70;;
36355;SDS011;22384;54.302;18.596;2022-07-23T00:35:39;10.95;;;6.55;;
36355;SDS011;22384;54.302;18.596;2022-07-23T00:38:07;8.23;;;5.82;;
36355;SDS011;22384;54.302;18.596;2022-07-23T00:40:34;10.57;;;5.20;;
36355;SDS011;22384;54.302;18.596;2022-07-23T00:43:01;7.10;;;5.85;;
36355;SDS011;22384;54.302;18.596;2022-07-23T00:45:27;9.50;;;6.18;;
36355;SDS011;22384;54.302;18.596;2022-07-23T00:47:54;8.38;;;6.65;;
36355;SDS011;22384;54.302;18.596;2022-07-23T00:50:21;9.52;;;6.75;;
36355;SDS011;22384;54.302;18.596;2022-07-23T00:52:47;8.65;;;7.55;;
36355;SDS011;22384;54.302;18.596;2022-07-23T00:55:13;9.38;;;5.82;;
36355;SDS011;22384;54.302;18.596;2022-07-23T00:57:40;12.77;;;6.72;;
36355;SDS011;22384;54.302;18.596;2022-07-23T01:00:08;10.70;;;7.22;;
36355;SDS011;22384;54.302;18.596;2022-07-23T01:02:35;13.07;;;7.63;;
36355;SDS011;22384;54.302;18.596;2022-07-23T01:05:02;13.77;;;8.15;;
36355;SDS011;22384;54.302;18.596;2022-07-23T01:07:30;11.13;;;7.80;;
36355;SDS011;22384;54.302;18.596;2022-07-23T01:09:56;11.95;;;8.43;;
36355;SDS011;22384;54.302;18.596;2022-07-23T01:12:22;13.05;;;7.85;;
36355;SDS011;22384;54.302;18.596;2022-07-23T01:14:58;14.20;;;7.97;;
36355;SDS011;22384;54.302;18.596;2022-07-23T01:17:24;12.10;;;7.97;;
36355;SDS011;22384;54.302;18.596;2022-07-23T01:19:51;15.45;;;7.93;;
36355;SDS011;22384;54.302;18.596;2022-07-23T01:22:18;14.40;;;8.18;;
36355;SDS011;22384;54.302;18.596;2022-07-23T01:24:45;12.65;;;8.10;;
36355;SDS011;22384;54.302;18.596;2022-07-23T01:27:11;13.57;;;8.65;;
36355;SDS011;22384;54.302;18.596;2022-07-23T01:29:42;17.40;;;8.35;;
36355;SDS011;22384;54.302;18.596;2022-07-23T01:32:09;12.13;;;8.10;;
36355;SDS011;22384;54.302;18.596;2022-07-23T01:34:35;10.25;;;7.90;;
36355;SDS011;22384;54.302;18.596;2022-07-23T01:37:01;12.73;;;7.68;;
36355;SDS011;22384;54.302;18.596;2022-07-23T01:39:27;10.93;;;8.00;;
36355;SDS011;22384;54.302;18.596;2022-07-23T01:41:54;10.80;;;7.35;;
36355;SDS011;22384;54.302;18.596;2022-07-23T01:44:20;11.18;;;7.88;;
36355;SDS011;22384;54.302;18.596;2022-07-23T01:46:46;10.48;;;7.25;;
36355;SDS011;22384;54.302;18.596;2022-07-23T01:49:12;10.55;;;7.25;;
36355;SDS011;22384;54.302;18.596;2022-07-23T01:51:39;11.52;;;7.88;;
36355;SDS011;22384;54.302;18.596;2022-07-23T01:54:28;10.27;;;7.13;;
36355;SDS011;22384;54.302;18.596;2022-07-23T01:56:54;9.63;;;6.65;;
36355;SDS011;22384;54.302;18.596;2022-07-23T01:59:21;15.00;;;7.60;;
36355;SDS011;22384;54.302;18.596;2022-07-23T02:01:47;11.20;;;7.55;;
36355;SDS011;22384;54.302;18.596;2022-07-23T02:04:16;11.02;;;8.25;;
36355;SDS011;22384;54.302;18.596;2022-07-23T02:06:42;11.73;;;8.75;;
36355;SDS011;22384;54.302;18.596;2022-07-23T02:09:09;18.73;;;10.63;;
36355;SDS011;22384;54.302;18.596;2022-07-23T02:11:35;16.20;;;11.30;;
36355;SDS011;22384;54.302;18.596;2022-07-23T02:14:01;19.05;;;11.38;;
36355;SDS011;22384;54.302;18.596;2022-07-23T02:16:28;15.52;;;10.30;;
36355;SDS011;22384;54.302;18.596;2022-07-23T02:18:54;15.98;;;10.38;;
36355;SDS011;22384;54.302;18.596;2022-07-23T02:21:20;13.60;;;9.23;;
36355;SDS011;22384;54.302;18.596;2022-07-23T02:23:47;13.50;;;8.70;;
36355;SDS011;22384;54.302;18.596;2022-07-23T02:26:13;19.08;;;9.95;;
36355;SDS011;22384;54.302;18.596;2022-07-23T02:28:40;13.38;;;9.23;;
36355;SDS011;22384;54.302;18.596;2022-07-23T02:31:06;12.45;;;7.93;;
36355;SDS011;22384;54.302;18.596;2022-07-23T02:33:33;10.88;;;7.60;;
36355;SDS011;22384;54.302;18.596;2022-07-23T02:35:59;10.43;;;7.28;;
36355;SDS011;22384;54.302;18.596;2022-07-23T02:38:25;9.02;;;7.18;;
36355;SDS011;22384;54.302;18.596;2022-07-23T02:40:52;8.63;;;6.68;;
36355;SDS011;22384;54.302;18.596;2022-07-23T02:43:18;14.30;;;7.13;;
36355;SDS011;22384;54.302;18.596;2022-07-23T02:45:44;9.60;;;7.18;;
36355;SDS011;22384;54.302;18.596;2022-07-23T02:48:10;11.27;;;7.03;;
36355;SDS011;22384;54.302;18.596;2022-07-23T02:50:38;12.52;;;7.07;;
36355;SDS011;22384;54.302;18.596;2022-07-23T02:53:04;9.68;;;6.63;;
36355;SDS011;22384;54.302;18.596;2022-07-23T02:55:30;10.30;;;6.03;;
36355;SDS011;22384;54.302;18.596;2022-07-23T02:57:57;8.00;;;6.25;;
36355;SDS011;22384;54.302;18.596;2022-07-23T03:00:23;8.25;;;6.28;;
36355;SDS011;22384;54.302;18.596;2022-07-23T03:02:50;12.20;;;6.90;;
36355;SDS011;22384;54.302;18.596;2022-07-23T03:05:16;13.35;;;6.50;;
36355;SDS011;22384;54.302;18.596;2022-07-23T03:07:42;9.20;;;6.65;;
36355;SDS011;22384;54.302;18.596;2022-07-23T03:10:08;9.30;;;6.80;;
36355;SDS011;22384;54.302;18.596;2022-07-23T03:12:35;12.48;;;7.20;;
36355;SDS011;22384;54.302;18.596;2022-07-23T03:15:01;7.68;;;6.47;;
36355;SDS011;22384;54.302;18.596;2022-07-23T03:17:27;8.75;;;7.07;;
36355;SDS011;22384;54.302;18.596;2022-07-23T03:19:53;17.55;;;6.47;;
36355;SDS011;22384;54.302;18.596;2022-07-23T03:22:19;9.93;;;6.45;;
36355;SDS011;22384;54.302;18.596;2022-07-23T03:24:46;14.38;;;6.95;;
36355;SDS011;22384;54.302;18.596;2022-07-23T03:27:21;11.77;;;6.18;;
36355;SDS011;22384;54.302;18.596;2022-07-23T03:29:48;8.43;;;5.93;;
36355;SDS011;22384;54.302;18.596;2022-07-23T03:32:15;7.75;;;6.18;;
36355;SDS011;22384;54.302;18.596;2022-07-23T03:34:42;8.40;;;5.88;;
36355;SDS011;22384;54.302;18.596;2022-07-23T03:37:08;10.10;;;6.15;;
36355;SDS011;22384;54.302;18.596;2022-07-23T03:39:34;10.60;;;5.72;;
36355;SDS011;22384;54.302;18.596;2022-07-23T03:42:01;10.13;;;6.20;;
36355;SDS011;22384;54.302;18.596;2022-07-23T03:44:27;8.90;;;5.97;;
36355;SDS011;22384;54.302;18.596;2022-07-23T03:46:54;8.65;;;5.93;;
36355;SDS011;22384;54.302;18.596;2022-07-23T03:49:20;11.57;;;6.43;;
36355;SDS011;22384;54.302;18.596;2022-07-23T03:51:46;8.70;;;5.72;;
36355;SDS011;22384;54.302;18.596;2022-07-23T03:54:13;8.25;;;5.85;;
36355;SDS011;22384;54.302;18.596;2022-07-23T03:56:39;10.73;;;5.80;;
36355;SDS011;22384;54.302;18.596;2022-07-23T03:59:05;6.93;;;5.07;;
36355;SDS011;22384;54.302;18.596;2022-07-23T04:01:31;9.70;;;5.82;;
36355;SDS011;22384;54.302;18.596;2022-07-23T04:03:58;9.10;;;5.47;;
36355;SDS011;22384;54.302;18.596;2022-07-23T04:06:24;10.05;;;5.90;;
36355;SDS011;22384;54.302;18.596;2022-07-23T04:08:50;10.27;;;5.53;;
36355;SDS011;22384;54.302;18.596;2022-07-23T04:11:17;11.57;;;5.72;;
36355;SDS011;22384;54.302;18.596;2022-07-23T04:13:43;10.50;;;6.38;;
36355;SDS011;22384;54.302;18.596;2022-07-23T04:16:09;9.05;;;6.10;;
36355;SDS011;22384;54.302;18.596;2022-07-23T04:18:35;9.80;;;5.63;;
36355;SDS011;22384;54.302;18.596;2022-07-23T04:21:01;8.85;;;5.63;;
36355;SDS011;22384;54.302;18.596;2022-07-23T04:23:28;7.53;;;5.65;;
36355;SDS011;22384;54.302;18.596;2022-07-23T04:25:54;9.13;;;5.75;;
36355;SDS011;22384;54.302;18.596;2022-07-23T04:28:20;9.35;;;6.35;;
36355;SDS011;22384;54.302;18.596;2022-07-23T04:30:46;7.75;;;5.70;;
36355;SDS011;22384;54.302;18.596;2022-07-23T04:33:13;9.55;;;5.68;;
36355;SDS011;22384;54.302;18.596;2022-07-23T04:35:39;7.13;;;5.97;;
36355;SDS011;22384;54.302;18.596;2022-07-23T04:38:05;9.10;;;5.80;;
36355;SDS011;22384;54.302;18.596;2022-07-23T04:40:31;11.10;;;6.60;;
36355;SDS011;22384;54.302;18.596;2022-07-23T04:42:58;8.73;;;6.20;;
36355;SDS011;22384;54.302;18.596;2022-07-23T04:45:24;10.18;;;6.15;;
36355;SDS011;22384;54.302;18.596;2022-07-23T04:47:50;9.20;;;6.53;;
36355;SDS011;22384;54.302;18.596;2022-07-23T04:50:16;13.10;;;6.68;;
36355;SDS011;22384;54.302;18.596;2022-07-23T04:52:46;10.27;;;6.80;;
36355;SDS011;22384;54.302;18.596;2022-07-23T04:55:13;9.75;;;5.57;;
36355;SDS011;22384;54.302;18.596;2022-07-23T04:57:39;9.68;;;6.25;;
36355;SDS011;22384;54.302;18.596;2022-07-23T05:00:06;9.05;;;6.47;;
36355;SDS011;22384;54.302;18.596;2022-07-23T05:02:32;8.77;;;6.22;;
36355;SDS011;22384;54.302;18.596;2022-07-23T05:04:58;9.40;;;5.63;;
36355;SDS011;22384;54.302;18.596;2022-07-23T05:07:25;12.38;;;6.50;;
36355;SDS011;22384;54.302;18.596;2022-07-23T05:09:51;9.00;;;5.03;;
36355;SDS011;22384;54.302;18.596;2022-07-23T05:12:18;12.00;;;5.68;;
36355;SDS011;22384;54.302;18.596;2022-07-23T05:14:44;11.35;;;5.70;;
36355;SDS011;22384;54.302;18.596;2022-07-23T05:17:10;9.10;;;5.40;;
36355;SDS011;22384;54.302;18.596;2022-07-23T05:19:36;7.50;;;5.47;;
36355;SDS011;22384;54.302;18.596;2022-07-23T05:22:03;10.07;;;5.78;;
36355;SDS011;22384;54.302;18.596;2022-07-23T05:24:29;7.72;;;6.20;;
36355;SDS011;22384;54.302;18.596;2022-07-23T05:26:55;13.05;;;5.65;;
36355;SDS011;22384;54.302;18.596;2022-07-23T05:29:21;9.75;;;5.03;;
36355;SDS011;22384;54.302;18.596;2022-07-23T05:31:47;9.07;;;4.22;;
36355;SDS011;22384;54.302;18.596;2022-07-23T05:34:15;6.97;;;3.60;;
36355;SDS011;22384;54.302;18.596;2022-07-23T05:36:41;6.20;;;3.88;;
36355;SDS011;22384;54.302;18.596;2022-07-23T05:39:07;9.68;;;4.40;;
36355;SDS011;22384;54.302;18.596;2022-07-23T05:41:33;10.38;;;4.05;;
36355;SDS011;22384;54.302;18.596;2022-07-23T05:43:59;9.73;;;3.92;;
36355;SDS011;22384;54.302;18.596;2022-07-23T05:46:26;7.03;;;3.88;;
36355;SDS011;22384;54.302;18.596;2022-07-23T05:48:52;8.57;;;3.60;;
36355;SDS011;22384;54.302;18.596;2022-07-23T05:51:19;6.75;;;3.92;;
36355;SDS011;22384;54.302;18.596;2022-07-23T05:53:46;8.65;;;3.58;;
36355;SDS011;22384;54.302;18.596;2022-07-23T05:56:13;8.52;;;4.40;;
36355;SDS011;22384;54.302;18.596;2022-07-23T05:58:39;9.85;;;3.80;;
36355;SDS011;22384;54.302;18.596;2022-07-23T06:01:05;8.70;;;3.55;;
36355;SDS011;22384;54.302;18.596;2022-07-23T06:03:31;5.43;;;3.03;;
36355;SDS011;22384;54.302;18.596;2022-07-23T06:05:57;8.35;;;3.35;;
36355;SDS011;22384;54.302;18.596;2022-07-23T06:08:30;7.03;;;3.97;;
36355;SDS011;22384;54.302;18.596;2022-07-23T06:10:57;7.80;;;3.72;;
36355;SDS011;22384;54.302;18.596;2022-07-23T06:13:23;6.30;;;3.63;;
36355;SDS011;22384;54.302;18.596;2022-07-23T06:15:50;5.95;;;3.60;;
36355;SDS011;22384;54.302;18.596;2022-07-23T06:18:16;6.43;;;3.50;;
36355;SDS011;22384;54.302;18.596;2022-07-23T06:20:43;7.75;;;3.72;;
36355;SDS011;22384;54.302;18.596;2022-07-23T06:23:10;6.15;;;3.50;;
36355;SDS011;22384;54.302;18.596;2022-07-23T06:25:37;5.80;;;3.25;;
36355;SDS011;22384;54.302;18.596;2022-07-23T06:28:05;8.48;;;3.40;;
36355;SDS011;22384;54.302;18.596;2022-07-23T06:30:31;6.07;;;3.42;;
36355;SDS011;22384;54.302;18.596;2022-07-23T06:32:57;5.47;;;3.05;;
36355;SDS011;22384;54.302;18.596;2022-07-23T06:35:24;8.85;;;3.70;;
36355;SDS011;22384;54.302;18.596;2022-07-23T06:37:50;5.10;;;3.03;;
36355;SDS011;22384;54.302;18.596;2022-07-23T06:40:16;8.43;;;3.83;;
36355;SDS011;22384;54.302;18.596;2022-07-23T06:42:42;8.30;;;3.65;;
36355;SDS011;22384;54.302;18.596;2022-07-23T06:45:08;7.32;;;3.33;;
36355;SDS011;22384;54.302;18.596;2022-07-23T06:47:34;8.95;;;3.70;;
36355;SDS011;22384;54.302;18.596;2022-07-23T06:50:01;6.38;;;3.13;;
36355;SDS011;22384;54.302;18.596;2022-07-23T06:52:27;8.45;;;3.40;;
36355;SDS011;22384;54.302;18.596;2022-07-23T06:54:53;7.80;;;3.78;;
36355;SDS011;22384;54.302;18.596;2022-07-23T06:57:20;8.40;;;3.78;;
36355;SDS011;22384;54.302;18.596;2022-07-23T06:59:46;8.50;;;3.35;;
36355;SDS011;22384;54.302;18.596;2022-07-23T07:02:12;5.85;;;3.60;;
36355;SDS011;22384;54.302;18.596;2022-07-23T07:04:38;6.82;;;3.95;;
36355;SDS011;22384;54.302;18.596;2022-07-23T07:07:05;7.40;;;3.50;;
36355;SDS011;22384;54.302;18.596;2022-07-23T07:09:34;6.88;;;3.30;;
36355;SDS011;22384;54.302;18.596;2022-07-23T07:12:00;10.75;;;3.53;;
36355;SDS011;22384;54.302;18.596;2022-07-23T07:14:27;6.10;;;3.60;;
36355;SDS011;22384;54.302;18.596;2022-07-23T07:16:53;8.00;;;3.58;;
36355;SDS011;22384;54.302;18.596;2022-07-23T07:19:19;7.40;;;3.47;;
36355;SDS011;22384;54.302;18.596;2022-07-23T07:21:45;5.40;;;3.20;;
36355;SDS011;22384;54.302;18.596;2022-07-23T07:24:11;7.63;;;3.75;;
36355;SDS011;22384;54.302;18.596;2022-07-23T07:26:38;6.47;;;3.65;;
36355;SDS011;22384;54.302;18.596;2022-07-23T07:29:05;6.85;;;4.32;;
36355;SDS011;22384;54.302;18.596;2022-07-23T07:31:31;6.07;;;3.63;;
36355;SDS011;22384;54.302;18.596;2022-07-23T07:33:58;9.60;;;4.00;;
36355;SDS011;22384;54.302;18.596;2022-07-23T07:36:27;7.55;;;3.53;;
36355;SDS011;22384;54.302;18.596;2022-07-23T07:38:53;5.80;;;3.60;;
36355;SDS011;22384;54.302;18.596;2022-07-23T07:41:19;9.27;;;4.22;;
36355;SDS011;22384;54.302;18.596;2022-07-23T07:43:49;4.22;;;3.47;;
36355;SDS011;22384;54.302;18.596;2022-07-23T07:46:15;7.28;;;3.50;;
36355;SDS011;22384;54.302;18.596;2022-07-23T07:48:42;7.85;;;3.78;;
36355;SDS011;22384;54.302;18.596;2022-07-23T07:51:08;7.15;;;4.30;;
36355;SDS011;22384;54.302;18.596;2022-07-23T07:53:34;4.50;;;3.83;;
36355;SDS011;22384;54.302;18.596;2022-07-23T07:56:00;7.32;;;4.00;;
36355;SDS011;22384;54.302;18.596;2022-07-23T07:58:27;6.18;;;3.05;;
36355;SDS011;22384;54.302;18.596;2022-07-23T08:00:55;6.28;;;3.45;;
36355;SDS011;22384;54.302;18.596;2022-07-23T08:03:21;8.25;;;4.13;;
36355;SDS011;22384;54.302;18.596;2022-07-23T08:05:48;5.88;;;3.90;;
36355;SDS011;22384;54.302;18.596;2022-07-23T08:08:14;5.55;;;4.15;;
36355;SDS011;22384;54.302;18.596;2022-07-23T08:10:41;7.63;;;3.80;;
36355;SDS011;22384;54.302;18.596;2022-07-23T08:13:11;5.63;;;3.63;;
36355;SDS011;22384;54.302;18.596;2022-07-23T08:15:38;5.30;;;3.72;;
36355;SDS011;22384;54.302;18.596;2022-07-23T08:18:04;6.55;;;3.95;;
36355;SDS011;22384;54.302;18.596;2022-07-23T08:20:30;5.85;;;3.63;;
36355;SDS011;22384;54.302;18.596;2022-07-23T08:23:02;5.25;;;4.20;;
36355;SDS011;22384;54.302;18.596;2022-07-23T08:25:29;4.07;;;3.58;;
36355;SDS011;22384;54.302;18.596;2022-07-23T08:27:56;5.78;;;3.40;;
36355;SDS011;22384;54.302;18.596;2022-07-23T08:30:25;6.78;;;3.97;;
36355;SDS011;22384;54.302;18.596;2022-07-23T08:35:24;4.50;;;3.60;;
36355;SDS011;22384;54.302;18.596;2022-07-23T08:37:51;5.30;;;3.40;;
36355;SDS011;22384;54.302;18.596;2022-07-23T08:40:18;4.45;;;3.70;;
36355;SDS011;22384;54.302;18.596;2022-07-23T08:42:45;4.60;;;3.42;;
36355;SDS011;22384;54.302;18.596;2022-07-23T08:45:12;5.70;;;3.92;;
36355;SDS011;22384;54.302;18.596;2022-07-23T08:47:41;6.82;;;3.70;;
36355;SDS011;22384;54.302;18.596;2022-07-23T08:50:09;8.70;;;3.13;;
36355;SDS011;22384;54.302;18.596;2022-07-23T08:52:56;4.32;;;3.17;;
36355;SDS011;22384;54.302;18.596;2022-07-23T08:55:24;6.35;;;3.85;;
36355;SDS011;22384;54.302;18.596;2022-07-23T08:57:53;8.10;;;4.25;;
36355;SDS011;22384;54.302;18.596;2022-07-23T09:00:20;7.63;;;3.70;;
36355;SDS011;22384;54.302;18.596;2022-07-23T09:02:46;7.63;;;3.65;;
36355;SDS011;22384;54.302;18.596;2022-07-23T09:05:13;4.85;;;3.75;;
36355;SDS011;22384;54.302;18.596;2022-07-23T09:10:29;6.72;;;3.40;;
36355;SDS011;22384;54.302;18.596;2022-07-23T09:13:01;5.32;;;3.42;;
36355;SDS011;22384;54.302;18.596;2022-07-23T09:15:29;7.45;;;3.95;;
36355;SDS011;22384;54.302;18.596;2022-07-23T09:17:56;6.60;;;3.60;;
36355;SDS011;22384;54.302;18.596;2022-07-23T09:20:22;6.20;;;3.85;;
36355;SDS011;22384;54.302;18.596;2022-07-23T09:22:48;3.78;;;3.35;;
36355;SDS011;22384;54.302;18.596;2022-07-23T09:25:16;7.90;;;3.47;;
36355;SDS011;22384;54.302;18.596;2022-07-23T09:30:15;8.40;;;3.47;;
36355;SDS011;22384;54.302;18.596;2022-07-23T09:32:41;7.25;;;3.47;;
36355;SDS011;22384;54.302;18.596;2022-07-23T09:35:08;6.10;;;4.07;;
36355;SDS011;22384;54.302;18.596;2022-07-23T09:37:34;9.35;;;4.78;;
36355;SDS011;22384;54.302;18.596;2022-07-23T09:40:07;6.07;;;3.67;;
36355;SDS011;22384;54.302;18.596;2022-07-23T09:42:34;6.63;;;3.97;;
36355;SDS011;22384;54.302;18.596;2022-07-23T09:45:00;7.53;;;3.80;;
36355;SDS011;22384;54.302;18.596;2022-07-23T09:47:30;9.02;;;3.80;;
36355;SDS011;22384;54.302;18.596;2022-07-23T09:52:30;6.80;;;3.90;;
36355;SDS011;22384;54.302;18.596;2022-07-23T09:54:58;7.88;;;4.95;;
36355;SDS011;22384;54.302;18.596;2022-07-23T09:57:27;12.25;;;5.47;;
36355;SDS011;22384;54.302;18.596;2022-07-23T09:59:53;5.63;;;3.75;;
36355;SDS011;22384;54.302;18.596;2022-07-23T10:02:23;5.63;;;3.55;;
36355;SDS011;22384;54.302;18.596;2022-07-23T10:04:51;6.80;;;3.78;;
36355;SDS011;22384;54.302;18.596;2022-07-23T10:07:18;6.13;;;3.58;;
36355;SDS011;22384;54.302;18.596;2022-07-23T10:09:47;6.88;;;3.90;;
36355;SDS011;22384;54.302;18.596;2022-07-23T10:12:15;4.82;;;3.72;;
36355;SDS011;22384;54.302;18.596;2022-07-23T10:14:42;6.68;;;4.15;;
36355;SDS011;22384;54.302;18.596;2022-07-23T10:17:08;8.52;;;3.95;;
36355;SDS011;22384;54.302;18.596;2022-07-23T10:19:35;3.85;;;3.47;;
36355;SDS011;22384;54.302;18.596;2022-07-23T10:22:11;6.07;;;3.67;;
36355;SDS011;22384;54.302;18.596;2022-07-23T10:24:45;6.90;;;4.00;;
36355;SDS011;22384;54.302;18.596;2022-07-23T10:27:27;7.15;;;3.60;;
36355;SDS011;22384;54.302;18.596;2022-07-23T10:30:06;6.78;;;3.80;;
36355;SDS011;22384;54.302;18.596;2022-07-23T10:38:21;7.45;;;3.50;;
36355;SDS011;22384;54.302;18.596;2022-07-23T10:40:58;8.90;;;4.15;;
36355;SDS011;22384;54.302;18.596;2022-07-23T10:43:25;7.60;;;3.97;;
36355;SDS011;22384;54.302;18.596;2022-07-23T10:45:51;10.05;;;4.25;;
36355;SDS011;22384;54.302;18.596;2022-07-23T10:48:19;4.80;;;3.50;;
36355;SDS011;22384;54.302;18.596;2022-07-23T10:59:07;6.22;;;4.43;;
36355;SDS011;22384;54.302;18.596;2022-07-23T11:01:34;6.53;;;4.03;;
36355;SDS011;22384;54.302;18.596;2022-07-23T11:04:01;7.22;;;4.50;;
36355;SDS011;22384;54.302;18.596;2022-07-23T11:09:23;9.50;;;4.28;;
36355;SDS011;22384;54.302;18.596;2022-07-23T11:12:31;5.88;;;4.40;;
36355;SDS011;22384;54.302;18.596;2022-07-23T11:17:22;10.85;;;3.75;;
36355;SDS011;22384;54.302;18.596;2022-07-23T11:25:13;5.78;;;4.15;;
36355;SDS011;22384;54.302;18.596;2022-07-23T11:27:45;9.05;;;4.35;;
36355;SDS011;22384;54.302;18.596;2022-07-23T11:32:53;17.30;;;5.38;;
36355;SDS011;22384;54.302;18.596;2022-07-23T11:35:20;6.80;;;3.90;;
36355;SDS011;22384;54.302;18.596;2022-07-23T11:37:47;6.10;;;4.35;;
36355;SDS011;22384;54.302;18.596;2022-07-23T11:40:15;5.13;;;3.80;;
36355;SDS011;22384;54.302;18.596;2022-07-23T11:42:51;5.75;;;3.90;;
36355;SDS011;22384;54.302;18.596;2022-07-23T11:45:17;5.93;;;4.13;;
36355;SDS011;22384;54.302;18.596;2022-07-23T11:47:44;6.15;;;4.30;;
36355;SDS011;22384;54.302;18.596;2022-07-23T11:50:10;8.38;;;5.25;;
36355;SDS011;22384;54.302;18.596;2022-07-23T11:52:39;6.10;;;4.55;;
36355;SDS011;22384;54.302;18.596;2022-07-23T11:55:09;6.07;;;4.13;;
36355;SDS011;22384;54.302;18.596;2022-07-23T11:57:36;6.72;;;4.07;;
36355;SDS011;22384;54.302;18.596;2022-07-23T12:02:36;9.13;;;4.25;;
36355;SDS011;22384;54.302;18.596;2022-07-23T12:05:03;10.45;;;4.07;;
36355;SDS011;22384;54.302;18.596;2022-07-23T12:07:37;5.60;;;4.30;;
36355;SDS011;22384;54.302;18.596;2022-07-23T12:12:42;8.63;;;4.32;;
36355;SDS011;22384;54.302;18.596;2022-07-23T12:15:09;7.22;;;3.97;;
36355;SDS011;22384;54.302;18.596;2022-07-23T12:17:37;6.15;;;3.90;;
36355;SDS011;22384;54.302;18.596;2022-07-23T12:20:06;6.13;;;3.88;;
36355;SDS011;22384;54.302;18.596;2022-07-23T12:22:35;5.07;;;3.97;;
36355;SDS011;22384;54.302;18.596;2022-07-23T12:25:03;6.65;;;3.80;;
36355;SDS011;22384;54.302;18.596;2022-07-23T12:27:30;5.07;;;3.90;;
36355;SDS011;22384;54.302;18.596;2022-07-23T12:29:56;6.22;;;3.85;;
36355;SDS011;22384;54.302;18.596;2022-07-23T12:32:24;8.20;;;4.22;;
36355;SDS011;22384;54.302;18.596;2022-07-23T12:35:00;8.80;;;4.40;;
36355;SDS011;22384;54.302;18.596;2022-07-23T12:37:29;7.78;;;4.30;;
36355;SDS011;22384;54.302;18.596;2022-07-23T12:39:55;5.68;;;4.22;;
36355;SDS011;22384;54.302;18.596;2022-07-23T12:42:22;8.23;;;4.28;;
36355;SDS011;22384;54.302;18.596;2022-07-23T12:50:41;5.15;;;3.83;;
36355;SDS011;22384;54.302;18.596;2022-07-23T12:53:09;6.90;;;3.63;;
36355;SDS011;22384;54.302;18.596;2022-07-23T12:55:36;5.38;;;3.78;;
36355;SDS011;22384;54.302;18.596;2022-07-23T12:58:06;5.93;;;3.58;;
36355;SDS011;22384;54.302;18.596;2022-07-23T13:00:48;3.67;;;3.20;;
36355;SDS011;22384;54.302;18.596;2022-07-23T13:06:10;6.38;;;3.53;;
36355;SDS011;22384;54.302;18.596;2022-07-23T13:08:37;4.47;;;3.45;;
36355;SDS011;22384;54.302;18.596;2022-07-23T13:11:05;6.65;;;3.30;;
36355;SDS011;22384;54.302;18.596;2022-07-23T13:13:32;7.18;;;3.53;;
36355;SDS011;22384;54.302;18.596;2022-07-23T13:16:00;5.57;;;3.72;;
36355;SDS011;22384;54.302;18.596;2022-07-23T13:18:27;5.60;;;3.92;;
36355;SDS011;22384;54.302;18.596;2022-07-23T13:20:54;5.63;;;3.67;;
36355;SDS011;22384;54.302;18.596;2022-07-23T13:23:23;4.45;;;3.33;;
36355;SDS011;22384;54.302;18.596;2022-07-23T13:25:49;6.07;;;3.55;;
36355;SDS011;22384;54.302;18.596;2022-07-23T13:28:18;8.73;;;3.53;;
36355;SDS011;22384;54.302;18.596;2022-07-23T13:30:48;4.83;;;3.53;;
36355;SDS011;22384;54.302;18.596;2022-07-23T13:33:24;3.67;;;3.00;;
36355;SDS011;22384;54.302;18.596;2022-07-23T13:35:51;4.95;;;3.38;;
36355;SDS011;22384;54.302;18.596;2022-07-23T13:38:18;5.85;;;3.47;;
36355;SDS011;22384;54.302;18.596;2022-07-23T13:40:47;4.57;;;3.55;;
36355;SDS011;22384;54.302;18.596;2022-07-23T13:43:16;5.57;;;3.20;;
36355;SDS011;22384;54.302;18.596;2022-07-23T13:45:42;6.40;;;3.70;;
36355;SDS011;22384;54.302;18.596;2022-07-23T13:48:10;5.97;;;3.13;;
36355;SDS011;22384;54.302;18.596;2022-07-23T13:50:36;8.85;;;3.40;;
36355;SDS011;22384;54.302;18.596;2022-07-23T13:53:10;5.00;;;3.38;;
36355;SDS011;22384;54.302;18.596;2022-07-23T13:55:36;5.60;;;3.60;;
36355;SDS011;22384;54.302;18.596;2022-07-23T13:58:03;3.75;;;3.10;;
36355;SDS011;22384;54.302;18.596;2022-07-23T14:00:29;3.92;;;3.05;;
36355;SDS011;22384;54.302;18.596;2022-07-23T14:02:56;4.57;;;3.00;;
36355;SDS011;22384;54.302;18.596;2022-07-23T14:05:22;4.53;;;3.47;;
36355;SDS011;22384;54.302;18.596;2022-07-23T14:07:51;4.05;;;3.13;;
36355;SDS011;22384;54.302;18.596;2022-07-23T14:10:20;5.72;;;3.10;;
36355;SDS011;22384;54.302;18.596;2022-07-23T14:12:47;7.63;;;2.95;;
36355;SDS011;22384;54.302;18.596;2022-07-23T14:15:13;4.13;;;3.10;;
36355;SDS011;22384;54.302;18.596;2022-07-23T14:17:40;4.43;;;3.00;;
36355;SDS011;22384;54.302;18.596;2022-07-23T14:20:06;4.40;;;2.85;;
36355;SDS011;22384;54.302;18.596;2022-07-23T14:22:33;3.47;;;3.00;;
36355;SDS011;22384;54.302;18.596;2022-07-23T14:25:00;5.38;;;2.90;;
36355;SDS011;22384;54.302;18.596;2022-07-23T14:27:29;4.30;;;2.95;;
36355;SDS011;22384;54.302;18.596;2022-07-23T14:29:55;4.00;;;3.25;;
36355;SDS011;22384;54.302;18.596;2022-07-23T14:32:21;4.45;;;3.10;;
36355;SDS011;22384;54.302;18.596;2022-07-23T14:34:48;5.75;;;3.15;;
36355;SDS011;22384;54.302;18.596;2022-07-23T14:37:14;4.22;;;2.80;;
36355;SDS011;22384;54.302;18.596;2022-07-23T14:39:43;6.20;;;3.17;;
36355;SDS011;22384;54.302;18.596;2022-07-23T14:42:10;4.75;;;3.35;;
36355;SDS011;22384;54.302;18.596;2022-07-23T14:44:36;4.20;;;3.10;;
36355;SDS011;22384;54.302;18.596;2022-07-23T14:47:02;4.80;;;3.17;;
36355;SDS011;22384;54.302;18.596;2022-07-23T14:49:30;4.93;;;3.10;;
36355;SDS011;22384;54.302;18.596;2022-07-23T14:51:57;3.63;;;3.25;;
36355;SDS011;22384;54.302;18.596;2022-07-23T14:54:24;5.25;;;2.97;;
36355;SDS011;22384;54.302;18.596;2022-07-23T14:56:51;9.93;;;3.40;;
36355;SDS011;22384;54.302;18.596;2022-07-23T14:59:17;5.07;;;3.08;;
36355;SDS011;22384;54.302;18.596;2022-07-23T15:01:43;3.22;;;2.55;;
36355;SDS011;22384;54.302;18.596;2022-07-23T15:04:10;4.55;;;3.08;;
36355;SDS011;22384;54.302;18.596;2022-07-23T15:06:36;4.82;;;3.00;;
36355;SDS011;22384;54.302;18.596;2022-07-23T15:09:04;4.30;;;2.88;;
36355;SDS011;22384;54.302;18.596;2022-07-23T15:11:30;4.50;;;3.15;;
36355;SDS011;22384;54.302;18.596;2022-07-23T15:13:59;3.47;;;2.97;;
36355;SDS011;22384;54.302;18.596;2022-07-23T15:16:25;5.78;;;3.67;;
36355;SDS011;22384;54.302;18.596;2022-07-23T15:18:52;5.55;;;3.28;;
36355;SDS011;22384;54.302;18.596;2022-07-23T15:21:18;5.55;;;3.65;;
36355;SDS011;22384;54.302;18.596;2022-07-23T15:23:44;5.53;;;3.53;;